KPPF

Tri-City Airport

Parsons, Kansas, USA
METAR KPPF 191319Z AUTO 19007KT BKN006 OVC010 05/04 A2985 RMK AO2 T00500044
Observed Flight Rules
Dec-19 @ 13:19 UTC (20 minutes ago)
Wind Clouds
190° at 7 knots
  • Broken at 600' AGL
  • Overcast at 1,000' AGL
Temperatures Readings
Current 5°C / 41°F
Dewpoint 4°C / 39°F
Humidity 93%
Altimeter 29.85" Hg
Pressure 1011 hPa
Elevation 274
METAR KPPF 191319Z AUTO 19007KT BKN006 OVC010 05/04 A2985 RMK AO2 T00500044
Observed Flight Rules
Dec-19 @ 13:19 UTC
(20 minutes ago)
Wind
190° at 7 knots
Clouds
  • Broken at 600' AGL
  • Overcast at 1,000' AGL
Temperature Dewpoint
5°C / 41°F 4°C / 39°F
Humidity Altimeter Pressure
93% 29.85" Hg 1011 hPa